sensor_id;sensor_type;location;lat;lon;timestamp;pressure;altitude;pressure_sealevel;temperature;humidity
56074;BME280;41950;55.840;37.442;2023-05-10T00:00:35;100588.19;;;7.53;47.37
56074;BME280;41950;55.840;37.442;2023-05-10T00:03:01;100702.47;;;8.16;47.73
56074;BME280;41950;55.840;37.442;2023-05-10T00:05:29;100623.69;;;7.74;48.47
56074;BME280;41950;55.840;37.442;2023-05-10T00:07:55;100616.72;;;7.67;48.37
56074;BME280;41950;55.840;37.442;2023-05-10T00:10:21;100615.75;;;7.57;48.68
56074;BME280;41950;55.840;37.442;2023-05-10T00:12:47;100642.66;;;7.74;48.87
56074;BME280;41950;55.840;37.442;2023-05-10T00:15:12;100615.72;;;7.53;49.53
56074;BME280;41950;55.840;37.442;2023-05-10T00:17:39;100624.34;;;7.55;48.97
56074;BME280;41950;55.840;37.442;2023-05-10T00:20:05;100674.63;;;7.87;48.84
56074;BME280;41950;55.840;37.442;2023-05-10T00:22:31;100652.94;;;7.68;48.14
56074;BME280;41950;55.840;37.442;2023-05-10T00:24:58;100647.84;;;7.81;48.41
56074;BME280;41950;55.840;37.442;2023-05-10T00:27:24;100635.78;;;7.77;48.47
56074;BME280;41950;55.840;37.442;2023-05-10T00:29:50;100655.66;;;7.87;48.52
56074;BME280;41950;55.840;37.442;2023-05-10T00:32:15;100632.31;;;7.76;48.77
56074;BME280;41950;55.840;37.442;2023-05-10T00:34:41;100676.44;;;7.94;48.81
56074;BME280;41950;55.840;37.442;2023-05-10T00:37:07;100635.72;;;7.69;48.96
56074;BME280;41950;55.840;37.442;2023-05-10T00:39:33;100672.88;;;7.85;49.20
56074;BME280;41950;55.840;37.442;2023-05-10T00:41:58;100581.03;;;7.29;49.22
56074;BME280;41950;55.840;37.442;2023-05-10T00:44:25;100670.25;;;7.80;49.53
56074;BME280;41950;55.840;37.442;2023-05-10T00:46:52;100649.41;;;7.63;49.42
56074;BME280;41950;55.840;37.442;2023-05-10T00:49:18;100590.44;;;7.23;49.75
56074;BME280;41950;55.840;37.442;2023-05-10T00:51:45;100637.28;;;7.55;49.86
56074;BME280;41950;55.840;37.442;2023-05-10T00:54:11;100699.59;;;7.87;49.62
56074;BME280;41950;55.840;37.442;2023-05-10T00:56:39;100663.16;;;7.59;49.66
56074;BME280;41950;55.840;37.442;2023-05-10T00:59:06;100546.28;;;6.98;49.27
56074;BME280;41950;55.840;37.442;2023-05-10T01:01:32;100697.00;;;7.87;49.72
56074;BME280;41950;55.840;37.442;2023-05-10T01:03:58;100593.13;;;7.33;49.87
56074;BME280;41950;55.840;37.442;2023-05-10T01:06:24;100500.47;;;6.79;50.05
56074;BME280;41950;55.840;37.442;2023-05-10T01:08:50;100685.88;;;7.92;50.51
56074;BME280;41950;55.840;37.442;2023-05-10T01:11:18;100576.75;;;7.30;51.01
56074;BME280;41950;55.840;37.442;2023-05-10T01:13:50;100665.94;;;7.79;51.70
56074;BME280;41950;55.840;37.442;2023-05-10T01:16:17;100686.66;;;7.85;51.46
56074;BME280;41950;55.840;37.442;2023-05-10T01:18:44;100632.97;;;7.54;51.14
56074;BME280;41950;55.840;37.442;2023-05-10T01:21:33;100686.69;;;7.87;50.80
56074;BME280;41950;55.840;37.442;2023-05-10T01:32:39;100696.13;;;7.85;50.46
56074;BME280;41950;55.840;37.442;2023-05-10T01:38:17;100680.53;;;7.72;49.37
56074;BME280;41950;55.840;37.442;2023-05-10T01:41:12;100697.00;;;7.85;48.62
56074;BME280;41950;55.840;37.442;2023-05-10T01:46:23;100656.25;;;7.58;49.20
56074;BME280;41950;55.840;37.442;2023-05-10T01:48:54;100646.75;;;7.56;49.03
56074;BME280;41950;55.840;37.442;2023-05-10T01:51:24;100686.59;;;7.76;49.37
56074;BME280;41950;55.840;37.442;2023-05-10T01:53:56;100622.53;;;7.43;49.60
56074;BME280;41950;55.840;37.442;2023-05-10T01:56:26;100676.13;;;7.67;49.84
56074;BME280;41950;55.840;37.442;2023-05-10T01:58:52;100682.22;;;7.70;49.95
56074;BME280;41950;55.840;37.442;2023-05-10T02:01:20;100642.44;;;7.56;49.86
56074;BME280;41950;55.840;37.442;2023-05-10T02:03:47;100650.22;;;7.59;50.04
56074;BME280;41950;55.840;37.442;2023-05-10T02:06:16;100612.09;;;7.35;50.06
56074;BME280;41950;55.840;37.442;2023-05-10T02:08:45;100684.78;;;7.69;50.35
56074;BME280;41950;55.840;37.442;2023-05-10T02:11:13;100683.13;;;7.75;50.60
56074;BME280;41950;55.840;37.442;2023-05-10T02:13:39;100680.56;;;7.75;49.90
56074;BME280;41950;55.840;37.442;2023-05-10T02:16:07;100613.84;;;7.39;49.91
56074;BME280;41950;55.840;37.442;2023-05-10T02:18:34;100663.16;;;7.62;49.64
56074;BME280;41950;55.840;37.442;2023-05-10T02:21:03;100660.59;;;7.64;49.60
56074;BME280;41950;55.840;37.442;2023-05-10T02:23:30;100602.59;;;7.33;49.71
56074;BME280;41950;55.840;37.442;2023-05-10T02:25:57;100656.38;;;7.67;50.21
56074;BME280;41950;55.840;37.442;2023-05-10T02:28:25;100640.75;;;7.58;50.11
56074;BME280;41950;55.840;37.442;2023-05-10T02:30:52;100537.72;;;7.02;50.61
56074;BME280;41950;55.840;37.442;2023-05-10T02:33:19;100626.09;;;7.56;50.90
56074;BME280;41950;55.840;37.442;2023-05-10T02:35:46;100571.56;;;7.27;51.61
56074;BME280;41950;55.840;37.442;2023-05-10T02:38:13;100667.72;;;7.88;51.81
56074;BME280;41950;55.840;37.442;2023-05-10T02:40:41;100620.91;;;7.54;51.84
56074;BME280;41950;55.840;37.442;2023-05-10T02:43:12;100665.13;;;7.85;51.83
56074;BME280;41950;55.840;37.442;2023-05-10T02:45:40;100658.16;;;7.76;51.10
56074;BME280;41950;55.840;37.442;2023-05-10T02:48:07;100642.59;;;7.68;50.80
56074;BME280;41950;55.840;37.442;2023-05-10T02:50:33;100659.94;;;7.83;50.22
56074;BME280;41950;55.840;37.442;2023-05-10T02:53:04;100620.06;;;7.55;50.50
56074;BME280;41950;55.840;37.442;2023-05-10T02:55:36;100499.75;;;6.88;50.46
56074;BME280;41950;55.840;37.442;2023-05-10T02:58:03;100665.97;;;7.84;50.22
56074;BME280;41950;55.840;37.442;2023-05-10T03:00:29;100506.69;;;6.93;50.06
56074;BME280;41950;55.840;37.442;2023-05-10T03:02:55;100627.88;;;7.63;50.21
56074;BME280;41950;55.840;37.442;2023-05-10T03:05:21;100659.94;;;7.82;50.02
56074;BME280;41950;55.840;37.442;2023-05-10T03:07:47;100609.69;;;7.52;49.53
56074;BME280;41950;55.840;37.442;2023-05-10T03:10:13;100638.28;;;7.67;49.63
56074;BME280;41950;55.840;37.442;2023-05-10T03:18:06;100672.03;;;7.86;49.47
56074;BME280;41950;55.840;37.442;2023-05-10T03:20:42;100626.22;;;7.69;49.47
56074;BME280;41950;55.840;37.442;2023-05-10T03:25:44;100623.59;;;7.66;50.05
56074;BME280;41950;55.840;37.442;2023-05-10T03:28:14;100637.38;;;7.65;50.01
56074;BME280;41950;55.840;37.442;2023-05-10T03:30:42;100624.53;;;7.70;50.75
56074;BME280;41950;55.840;37.442;2023-05-10T03:33:09;100577.75;;;7.42;50.37
56074;BME280;41950;55.840;37.442;2023-05-10T03:35:34;100636.66;;;7.82;50.33
56074;BME280;41950;55.840;37.442;2023-05-10T03:38:00;100568.19;;;7.34;50.28
56074;BME280;41950;55.840;37.442;2023-05-10T03:40:27;100485.25;;;7.03;50.31
56074;BME280;41950;55.840;37.442;2023-05-10T03:42:58;100623.03;;;7.95;49.93
56074;BME280;41950;55.840;37.442;2023-05-10T03:45:24;100628.19;;;7.96;50.07
56074;BME280;41950;55.840;37.442;2023-05-10T03:47:50;100617.84;;;7.95;50.01
56074;BME280;41950;55.840;37.442;2023-05-10T03:50:16;100644.72;;;8.15;50.22
56074;BME280;41950;55.840;37.442;2023-05-10T03:52:41;100602.38;;;7.99;50.07
56074;BME280;41950;55.840;37.442;2023-05-10T03:55:07;100624.91;;;8.19;49.86
56074;BME280;41950;55.840;37.442;2023-05-10T03:57:33;100601.66;;;8.20;50.36
56074;BME280;41950;55.840;37.442;2023-05-10T03:59:59;100662.31;;;8.59;49.71
56074;BME280;41950;55.840;37.442;2023-05-10T04:02:28;100653.72;;;8.64;49.20
56074;BME280;41950;55.840;37.442;2023-05-10T04:04:55;100566.25;;;8.10;49.25
56074;BME280;41950;55.840;37.442;2023-05-10T04:07:20;100596.63;;;8.37;49.30
56074;BME280;41950;55.840;37.442;2023-05-10T04:09:46;100640.81;;;8.69;49.21
56074;BME280;41950;55.840;37.442;2023-05-10T04:12:12;100607.88;;;8.47;48.87
56074;BME280;41950;55.840;37.442;2023-05-10T04:14:38;100642.59;;;8.78;48.43
56074;BME280;41950;55.840;37.442;2023-05-10T04:17:04;100592.44;;;8.59;48.55
56074;BME280;41950;55.840;37.442;2023-05-10T04:19:30;100543.19;;;8.44;47.99
56074;BME280;41950;55.840;37.442;2023-05-10T04:21:56;100421.31;;;7.80;47.93
56074;BME280;41950;55.840;37.442;2023-05-10T04:24:22;100565.78;;;8.75;47.65
56074;BME280;41950;55.840;37.442;2023-05-10T04:26:48;100446.44;;;8.10;47.12
56074;BME280;41950;55.840;37.442;2023-05-10T04:29:14;100461.13;;;8.18;47.01
56074;BME280;41950;55.840;37.442;2023-05-10T04:31:40;100524.28;;;8.54;47.13
56074;BME280;41950;55.840;37.442;2023-05-10T04:34:05;100450.84;;;8.24;47.13
56074;BME280;41950;55.840;37.442;2023-05-10T04:36:34;100621.25;;;9.41;46.58
56074;BME280;41950;55.840;37.442;2023-05-10T04:39:03;100414.59;;;8.17;46.49
56074;BME280;41950;55.840;37.442;2023-05-10T04:41:29;100349.84;;;7.89;46.22
56074;BME280;41950;55.840;37.442;2023-05-10T04:43:55;100427.63;;;8.33;46.17
56074;BME280;41950;55.840;37.442;2023-05-10T04:46:24;100479.50;;;8.73;45.96
56074;BME280;41950;55.840;37.442;2023-05-10T04:48:50;100482.94;;;8.75;45.94
56074;BME280;41950;55.840;37.442;2023-05-10T04:51:15;100538.31;;;9.26;46.04
56074;BME280;41950;55.840;37.442;2023-05-10T04:53:41;100540.94;;;9.44;45.12
56074;BME280;41950;55.840;37.442;2023-05-10T04:56:07;100611.81;;;9.81;44.51
56074;BME280;41950;55.840;37.442;2023-05-10T04:58:33;100529.69;;;9.25;44.23
56074;BME280;41950;55.840;37.442;2023-05-10T05:01:08;100584.16;;;9.59;44.86
56074;BME280;41950;55.840;37.442;2023-05-10T05:03:35;100613.56;;;9.87;44.68
56074;BME280;41950;55.840;37.442;2023-05-10T05:06:01;100555.66;;;9.60;44.04
56074;BME280;41950;55.840;37.442;2023-05-10T05:08:27;100584.16;;;9.79;44.12
56074;BME280;41950;55.840;37.442;2023-05-10T05:10:53;100584.16;;;9.85;44.25
56074;BME280;41950;55.840;37.442;2023-05-10T05:13:19;100619.59;;;10.18;44.36
56074;BME280;41950;55.840;37.442;2023-05-10T05:15:45;100586.72;;;10.11;44.31
56074;BME280;41950;55.840;37.442;2023-05-10T05:18:11;100526.25;;;9.95;43.65
56074;BME280;41950;55.840;37.442;2023-05-10T05:20:37;100537.47;;;10.02;43.50
56074;BME280;41950;55.840;37.442;2023-05-10T05:23:02;100571.19;;;10.21;43.12
56074;BME280;41950;55.840;37.442;2023-05-10T05:25:28;100566.88;;;10.24;42.92
56074;BME280;41950;55.840;37.442;2023-05-10T05:27:54;100559.91;;;10.35;42.82
56074;BME280;41950;55.840;37.442;2023-05-10T05:30:20;100501.13;;;10.20;42.61
56074;BME280;41950;55.840;37.442;2023-05-10T05:32:46;100387.19;;;9.65;42.36
56074;BME280;41950;55.840;37.442;2023-05-10T05:35:12;100432.81;;;10.13;42.28
56074;BME280;41950;55.840;37.442;2023-05-10T05:37:38;100532.03;;;10.87;41.91
56074;BME280;41950;55.840;37.442;2023-05-10T05:40:05;100586.25;;;11.51;41.97
56074;BME280;41950;55.840;37.442;2023-05-10T05:42:32;100498.97;;;11.15;41.67
56074;BME280;41950;55.840;37.442;2023-05-10T05:44:58;100582.56;;;11.86;42.07
56074;BME280;41950;55.840;37.442;2023-05-10T05:47:24;100586.81;;;11.94;40.92
56074;BME280;41950;55.840;37.442;2023-05-10T05:49:50;100603.28;;;11.96;40.51
56074;BME280;41950;55.840;37.442;2023-05-10T05:52:16;100491.88;;;11.41;40.80
56074;BME280;41950;55.840;37.442;2023-05-10T05:54:42;100475.31;;;11.50;40.36
56074;BME280;41950;55.840;37.442;2023-05-10T05:57:07;100488.19;;;11.68;40.10
56074;BME280;41950;55.840;37.442;2023-05-10T05:59:34;100482.19;;;11.62;40.03
56074;BME280;41950;55.840;37.442;2023-05-10T06:02:00;100467.50;;;11.55;40.06
56074;BME280;41950;55.840;37.442;2023-05-10T06:04:26;100541.63;;;12.07;40.11
56074;BME280;41950;55.840;37.442;2023-05-10T06:06:52;100537.06;;;12.28;39.77
56074;BME280;41950;55.840;37.442;2023-05-10T06:09:18;100496.47;;;12.12;39.52
56074;BME280;41950;55.840;37.442;2023-05-10T06:11:44;100442.16;;;11.83;38.72
56074;BME280;41950;55.840;37.442;2023-05-10T06:14:10;100433.47;;;11.82;39.13
56074;BME280;41950;55.840;37.442;2023-05-10T06:16:36;100381.81;;;11.42;38.79
56074;BME280;41950;55.840;37.442;2023-05-10T06:19:02;100574.66;;;12.79;38.23
56074;BME280;41950;55.840;37.442;2023-05-10T06:21:28;100458.19;;;12.21;37.76
56074;BME280;41950;55.840;37.442;2023-05-10T06:24:06;100414.94;;;12.11;37.86
56074;BME280;41950;55.840;37.442;2023-05-10T06:26:34;100388.88;;;12.16;37.06
56074;BME280;41950;55.840;37.442;2023-05-10T06:29:00;100428.56;;;12.33;36.73
56074;BME280;41950;55.840;37.442;2023-05-10T06:31:26;100493.13;;;12.74;36.02
56074;BME280;41950;55.840;37.442;2023-05-10T06:33:52;100471.59;;;12.61;36.00
56074;BME280;41950;55.840;37.442;2023-05-10T06:36:18;100518.13;;;12.87;35.75
56074;BME280;41950;55.840;37.442;2023-05-10T06:38:44;100451.78;;;12.48;35.36
56074;BME280;41950;55.840;37.442;2023-05-10T06:41:09;100461.19;;;12.58;35.65
56074;BME280;41950;55.840;37.442;2023-05-10T06:43:35;100467.75;;;12.87;35.26
56074;BME280;41950;55.840;37.442;2023-05-10T06:46:02;100477.00;;;13.09;35.25
56074;BME280;41950;55.840;37.442;2023-05-10T06:48:28;100552.81;;;13.54;35.05
56074;BME280;41950;55.840;37.442;2023-05-10T06:50:53;100576.91;;;13.71;35.04
56074;BME280;41950;55.840;37.442;2023-05-10T06:53:19;100450.03;;;13.10;34.41
56074;BME280;41950;55.840;37.442;2023-05-10T06:55:45;100560.28;;;13.77;34.18
56074;BME280;41950;55.840;37.442;2023-05-10T06:58:11;100523.94;;;13.66;34.31
56074;BME280;41950;55.840;37.442;2023-05-10T07:00:38;100431.66;;;13.22;33.91
56074;BME280;41950;55.840;37.442;2023-05-10T07:03:06;100522.81;;;13.82;34.02
56074;BME280;41950;55.840;37.442;2023-05-10T07:05:34;100487.16;;;13.81;33.91
56074;BME280;41950;55.840;37.442;2023-05-10T07:07:59;100539.56;;;14.17;33.27
56074;BME280;41950;55.840;37.442;2023-05-10T07:10:25;100510.13;;;14.10;32.97
56074;BME280;41950;55.840;37.442;2023-05-10T07:12:51;100363.06;;;13.20;33.15
56074;BME280;41950;55.840;37.442;2023-05-10T07:15:17;100448.19;;;13.72;33.47
56074;BME280;41950;55.840;37.442;2023-05-10T07:17:43;100509.91;;;14.21;32.89
56074;BME280;41950;55.840;37.442;2023-05-10T07:20:09;100532.44;;;14.28;32.31
56074;BME280;41950;55.840;37.442;2023-05-10T07:22:35;100503.03;;;14.17;32.30
56074;BME280;41950;55.840;37.442;2023-05-10T07:25:01;100456.41;;;13.99;32.13
56074;BME280;41950;55.840;37.442;2023-05-10T07:27:30;100491.94;;;14.50;31.01
56074;BME280;41950;55.840;37.442;2023-05-10T07:29:56;100547.38;;;15.06;30.86
56074;BME280;41950;55.840;37.442;2023-05-10T07:32:22;100522.81;;;15.15;29.85
56074;BME280;41950;55.840;37.442;2023-05-10T07:34:47;100477.09;;;14.94;29.53
56074;BME280;41950;55.840;37.442;2023-05-10T07:37:13;100489.78;;;15.11;30.26
56074;BME280;41950;55.840;37.442;2023-05-10T07:39:41;100449.56;;;14.78;30.36
56074;BME280;41950;55.840;37.442;2023-05-10T07:42:07;100269.25;;;13.62;29.99
56074;BME280;41950;55.840;37.442;2023-05-10T07:44:33;100555.81;;;15.21;30.48
56074;BME280;41950;55.840;37.442;2023-05-10T07:47:00;100375.69;;;14.31;30.78
56074;BME280;41950;55.840;37.442;2023-05-10T07:49:25;100397.53;;;14.69;31.59
56074;BME280;41950;55.840;37.442;2023-05-10T07:51:51;100424.69;;;14.99;30.63
56074;BME280;41950;55.840;37.442;2023-05-10T07:54:17;100397.09;;;14.87;29.31
56074;BME280;41950;55.840;37.442;2023-05-10T07:56:43;100438.75;;;14.95;28.67
56074;BME280;41950;55.840;37.442;2023-05-10T07:59:15;100475.09;;;15.05;28.72
56074;BME280;41950;55.840;37.442;2023-05-10T08:01:42;100498.13;;;15.27;29.47
56074;BME280;41950;55.840;37.442;2023-05-10T08:04:07;100459.94;;;15.20;29.94
56074;BME280;41950;55.840;37.442;2023-05-10T08:06:34;100469.03;;;15.40;29.65
56074;BME280;41950;55.840;37.442;2023-05-10T08:09:00;100499.09;;;15.60;29.65
56074;BME280;41950;55.840;37.442;2023-05-10T08:11:26;100479.22;;;15.51;29.42
56074;BME280;41950;55.840;37.442;2023-05-10T08:13:53;100498.38;;;15.53;28.35
56074;BME280;41950;55.840;37.442;2023-05-10T08:16:20;100505.91;;;15.30;28.77
56074;BME280;41950;55.840;37.442;2023-05-10T08:18:46;100514.06;;;15.16;28.14
56074;BME280;41950;55.840;37.442;2023-05-10T08:21:13;100489.25;;;14.95;28.57
56074;BME280;41950;55.840;37.442;2023-05-10T08:23:39;100442.69;;;14.74;29.04
56074;BME280;41950;55.840;37.442;2023-05-10T08:26:05;100490.69;;;15.10;28.82
56074;BME280;41950;55.840;37.442;2023-05-10T08:28:31;100480.19;;;15.11;28.53
56074;BME280;41950;55.840;37.442;2023-05-10T08:30:57;100437.81;;;14.97;28.39
56074;BME280;41950;55.840;37.442;2023-05-10T08:33:24;100466.81;;;15.24;28.70
56074;BME280;41950;55.840;37.442;2023-05-10T08:35:50;100461.34;;;15.34;28.83
56074;BME280;41950;55.840;37.442;2023-05-10T08:38:17;100425.50;;;15.38;29.00
56074;BME280;41950;55.840;37.442;2023-05-10T08:40:44;100479.81;;;15.98;29.23
56074;BME280;41950;55.840;37.442;2023-05-10T08:43:12;100443.97;;;16.00;28.22
56074;BME280;41950;55.840;37.442;2023-05-10T08:45:42;100488.19;;;16.42;28.67
56074;BME280;41950;55.840;37.442;2023-05-10T08:48:09;100422.47;;;16.20;27.54
56074;BME280;41950;55.840;37.442;2023-05-10T08:50:40;100436.59;;;16.45;26.94
56074;BME280;41950;55.840;37.442;2023-05-10T08:53:13;100438.31;;;16.46;26.00
56074;BME280;41950;55.840;37.442;2023-05-10T08:55:40;100469.78;;;16.76;26.76
56074;BME280;41950;55.840;37.442;2023-05-10T08:58:08;100408.72;;;16.41;26.22
56074;BME280;41950;55.840;37.442;2023-05-10T09:00:37;100334.44;;;16.14;25.84
56074;BME280;41950;55.840;37.442;2023-05-10T09:03:04;100438.41;;;17.01;26.25
56074;BME280;41950;55.840;37.442;2023-05-10T09:05:33;100400.22;;;16.92;25.69
56074;BME280;41950;55.840;37.442;2023-05-10T09:07:58;100418.19;;;17.04;25.28
56074;BME280;41950;55.840;37.442;2023-05-10T09:10:28;100463.16;;;17.46;25.33
56074;BME280;41950;55.840;37.442;2023-05-10T09:12:56;100377.38;;;17.22;24.98
56074;BME280;41950;55.840;37.442;2023-05-10T09:15:22;100403.88;;;17.67;25.07
56074;BME280;41950;55.840;37.442;2023-05-10T09:17:49;100425.19;;;17.83;23.69
56074;BME280;41950;55.840;37.442;2023-05-10T09:20:15;100448.16;;;18.01;24.00
56074;BME280;41950;55.840;37.442;2023-05-10T09:22:43;100412.84;;;18.10;24.77
56074;BME280;41950;55.840;37.442;2023-05-10T09:25:09;100433.91;;;18.32;24.40
56074;BME280;41950;55.840;37.442;2023-05-10T09:27:38;100392.84;;;18.06;24.49
56074;BME280;41950;55.840;37.442;2023-05-10T09:30:04;100391.91;;;18.07;24.78
56074;BME280;41950;55.840;37.442;2023-05-10T09:32:43;100365.53;;;17.61;24.72
56074;BME280;41950;55.840;37.442;2023-05-10T09:35:11;100415.28;;;17.65;24.86
56074;BME280;41950;55.840;37.442;2023-05-10T09:37:39;100403.75;;;17.70;25.31
56074;BME280;41950;55.840;37.442;2023-05-10T09:40:08;100384.28;;;17.76;25.58
56074;BME280;41950;55.840;37.442;2023-05-10T09:42:41;100417.03;;;17.90;25.03
56074;BME280;41950;55.840;37.442;2023-05-10T09:45:07;100412.16;;;17.80;25.26
56074;BME280;41950;55.840;37.442;2023-05-10T09:47:36;100425.28;;;17.80;24.88
56074;BME280;41950;55.840;37.442;2023-05-10T09:50:03;100376.88;;;17.37;25.48
56074;BME280;41950;55.840;37.442;2023-05-10T09:53:00;100421.97;;;17.75;25.05
56074;BME280;41950;55.840;37.442;2023-05-10T09:55:46;100424.81;;;17.69;25.46
56074;BME280;41950;55.840;37.442;2023-05-10T09:58:14;100279.31;;;16.75;24.53
56074;BME280;41950;55.840;37.442;2023-05-10T10:00:44;100354.56;;;16.99;24.52
56074;BME280;41950;55.840;37.442;2023-05-10T10:03:22;100373.78;;;16.98;25.45
56074;BME280;41950;55.840;37.442;2023-05-10T10:05:48;100413.88;;;17.29;25.50
56074;BME280;41950;55.840;37.442;2023-05-10T10:08:15;100419.13;;;17.29;24.68
56074;BME280;41950;55.840;37.442;2023-05-10T10:10:41;100411.78;;;17.39;25.00
56074;BME280;41950;55.840;37.442;2023-05-10T10:13:09;100334.44;;;16.99;24.45
56074;BME280;41950;55.840;37.442;2023-05-10T10:15:35;100368.66;;;17.21;24.53
56074;BME280;41950;55.840;37.442;2023-05-10T10:18:01;100371.31;;;17.20;24.31
56074;BME280;41950;55.840;37.442;2023-05-10T10:20:28;100309.34;;;16.91;24.29
56074;BME280;41950;55.840;37.442;2023-05-10T10:22:54;100414.09;;;17.48;23.95
56074;BME280;41950;55.840;37.442;2023-05-10T10:25:21;100379.50;;;17.37;23.77
56074;BME280;41950;55.840;37.442;2023-05-10T10:34:17;100397.53;;;18.21;22.87
56074;BME280;41950;55.840;37.442;2023-05-10T10:36:12;100382.00;;;18.15;22.86
56074;BME280;41950;55.840;37.442;2023-05-10T10:38:55;100384.16;;;18.27;23.30
56074;BME280;41950;55.840;37.442;2023-05-10T10:41:34;100386.91;;;18.47;23.84
56074;BME280;41950;55.840;37.442;2023-05-10T10:54:50;100355.41;;;18.46;23.43
56074;BME280;41950;55.840;37.442;2023-05-10T10:57:18;100379.06;;;18.69;24.44
56074;BME280;41950;55.840;37.442;2023-05-10T10:59:44;100363.84;;;18.54;23.21
56074;BME280;41950;55.840;37.442;2023-05-10T11:02:34;100368.00;;;18.38;22.26
56074;BME280;41950;55.840;37.442;2023-05-10T11:10:35;100343.03;;;18.03;23.40
56074;BME280;41950;55.840;37.442;2023-05-10T11:13:03;100362.03;;;18.33;22.50
56074;BME280;41950;55.840;37.442;2023-05-10T11:15:34;100368.06;;;18.58;22.86
56074;BME280;41950;55.840;37.442;2023-05-10T11:18:19;100342.63;;;18.59;23.30
56074;BME280;41950;55.840;37.442;2023-05-10T11:21:07;100357.59;;;18.80;24.82
56074;BME280;41950;55.840;37.442;2023-05-10T11:26:07;100352.28;;;18.58;22.50
56074;BME280;41950;55.840;37.442;2023-05-10T11:28:45;100328.75;;;18.33;23.52
56074;BME280;41950;55.840;37.442;2023-05-10T11:31:18;100353.03;;;18.62;23.68
56074;BME280;41950;55.840;37.442;2023-05-10T11:33:46;100357.94;;;18.49;22.49
56074;BME280;41950;55.840;37.442;2023-05-10T11:36:15;100275.41;;;18.09;22.28
56074;BME280;41950;55.840;37.442;2023-05-10T11:38:41;100352.00;;;18.67;22.14
56074;BME280;41950;55.840;37.442;2023-05-10T11:41:11;100323.00;;;18.69;21.71
56074;BME280;41950;55.840;37.442;2023-05-10T11:43:41;100330.88;;;18.91;21.95
56074;BME280;41950;55.840;37.442;2023-05-10T11:46:08;100321.53;;;19.44;21.26
56074;BME280;41950;55.840;37.442;2023-05-10T11:48:36;100313.28;;;19.74;21.07
56074;BME280;41950;55.840;37.442;2023-05-10T11:51:02;100335.56;;;19.86;21.25
56074;BME280;41950;55.840;37.442;2023-05-10T11:53:32;100325.06;;;20.04;21.01
56074;BME280;41950;55.840;37.442;2023-05-10T11:56:10;100296.53;;;20.50;20.55
56074;BME280;41950;55.840;37.442;2023-05-10T11:58:37;100321.22;;;20.85;21.23
56074;BME280;41950;55.840;37.442;2023-05-10T12:01:05;100322.06;;;21.03;20.63
56074;BME280;41950;55.840;37.442;2023-05-10T12:03:32;100254.50;;;20.47;21.13
56074;BME280;41950;55.840;37.442;2023-05-10T12:05:58;100318.41;;;20.15;21.85
56074;BME280;41950;55.840;37.442;2023-05-10T12:08:26;100290.22;;;19.38;22.65
56074;BME280;41950;55.840;37.442;2023-05-10T12:11:03;100272.25;;;18.87;22.48
56074;BME280;41950;55.840;37.442;2023-05-10T12:13:29;100286.56;;;18.58;23.12
56074;BME280;41950;55.840;37.442;2023-05-10T12:15:57;100303.91;;;18.42;23.73
56074;BME280;41950;55.840;37.442;2023-05-10T12:18:24;100311.25;;;18.32;24.84
56074;BME280;41950;55.840;37.442;2023-05-10T12:20:54;100287.81;;;18.04;24.71
56074;BME280;41950;55.840;37.442;2023-05-10T12:23:20;100241.97;;;17.68;24.03
56074;BME280;41950;55.840;37.442;2023-05-10T12:25:46;100161.03;;;17.09;24.78
56074;BME280;41950;55.840;37.442;2023-05-10T12:28:12;100303.50;;;17.84;25.91
56074;BME280;41950;55.840;37.442;2023-05-10T12:30:38;100294.22;;;17.74;25.13
56074;BME280;41950;55.840;37.442;2023-05-10T12:33:11;100301.84;;;17.81;24.69
56074;BME280;41950;55.840;37.442;2023-05-10T12:35:54;100270.00;;;17.66;24.64
56074;BME280;41950;55.840;37.442;2023-05-10T12:38:35;100300.28;;;17.76;25.36
56074;BME280;41950;55.840;37.442;2023-05-10T12:41:10;100295.03;;;17.76;26.06
56074;BME280;41950;55.840;37.442;2023-05-10T12:43:40;100259.16;;;17.51;24.64
56074;BME280;41950;55.840;37.442;2023-05-10T12:46:09;100248.81;;;17.47;24.49
56074;BME280;41950;55.840;37.442;2023-05-10T12:48:37;100291.28;;;17.83;23.53
56074;BME280;41950;55.840;37.442;2023-05-10T12:51:04;100271.69;;;17.68;23.72
56074;BME280;41950;55.840;37.442;2023-05-10T12:53:30;100284.03;;;17.65;23.53
56074;BME280;41950;55.840;37.442;2023-05-10T12:55:57;100273.53;;;17.65;23.38
56074;BME280;41950;55.840;37.442;2023-05-10T12:58:23;100295.03;;;17.76;23.30
56074;BME280;41950;55.840;37.442;2023-05-10T13:00:50;100226.41;;;17.38;23.84
56074;BME280;41950;55.840;37.442;2023-05-10T13:03:17;100278.59;;;17.71;24.06
56074;BME280;41950;55.840;37.442;2023-05-10T13:05:43;100248.22;;;17.64;24.49
56074;BME280;41950;55.840;37.442;2023-05-10T13:08:09;100234.41;;;17.58;24.11
56074;BME280;41950;55.840;37.442;2023-05-10T13:10:34;100266.31;;;17.71;23.56
56074;BME280;41950;55.840;37.442;2023-05-10T13:13:00;100282.03;;;17.73;23.78
56074;BME280;41950;55.840;37.442;2023-05-10T13:15:26;100256.31;;;17.57;25.83
56074;BME280;41950;55.840;37.442;2023-05-10T13:17:53;100239.41;;;17.41;25.87
56074;BME280;41950;55.840;37.442;2023-05-10T13:20:19;100274.81;;;17.54;24.84
56074;BME280;41950;55.840;37.442;2023-05-10T13:22:45;100263.84;;;17.18;24.74
56074;BME280;41950;55.840;37.442;2023-05-10T13:25:11;100225.09;;;17.02;24.52
56074;BME280;41950;55.840;37.442;2023-05-10T13:27:39;100266.69;;;17.37;25.86
56074;BME280;41950;55.840;37.442;2023-05-10T13:30:07;100274.31;;;17.43;25.06
56074;BME280;41950;55.840;37.442;2023-05-10T13:32:33;100266.44;;;17.43;24.71